Pagrindinis puslapis
METAR-TAF:

METAR-TAF

Oro uostai :

Chitose, Japonija

platuma: 42-48N, ilguma: 141-40E, Aukštis: 27 m

Dabartinis oras

Ataskaita buvo paskelbta 31 minutes, ne 12:30 UTC
Vėjas 1 kt nuo kintamojo kryptimis
Temperatūra 16°C
Drėgmė 72%
Slėgis 1013 hPa
Matomumas 10 km arba daugiau
Mažai debesys ne aukštis 5000 ft

METAR: RJCC 291230Z VRB01KT 9999 FEW050 16/11 Q1013 RMK 1CU050 A2992

Laikas: 22:01 (13:01 UTC)

Prognozė

Ataskaita buvo paskelbta 1 valandą ir 56 minutes, ne 11:05 UTC
Prognozė galioja nuo 29 metu 12 UTC su 30 metu 18 UTC
Vėjas 6 kt iš Šiaurės/Šiaurės Vakarų
Matomumas 10 km arba daugiau
Mažai debesys ne aukštis 3000 ft
Tapsmas
nuo 29 metu 14 UTC su 29 metu 16 UTC
Vėjas 4 kt iš Pietų
Tapsmas
nuo 29 metu 22 UTC su 30 metu 00 UTC
Vėjas 5 kt iš Šiaurės/Šiaurės Vakarų
Tapsmas
nuo 30 metu 12 UTC su 30 metu 15 UTC
Vėjas 5 kt iš Pietų

TAF: RJCC 291105Z 2912/3018 34006KT 9999 FEW030 BECMG 2914/2916 18004KT BECMG 2922/3000 34005KT BECMG 3012/3015 17005KT

Orai ataskaitas ir orų prognozės (METAR, TAF).

turimą stotys yra geltonos ir raudonos taškus žemėlapyje.

Perkelti pele per norėdami pamatyti stoties vardą.

Tada spustelėkite, norėdami matyti oro stebėjimo ir prognozės.

Norėdami pakeisti žemėlapį: spustelėkite ant žalios mygtukų su juodo kryžiaus žemyn,; žalią mygtuką su brūkšneliu, jei norite nutolinti; arba žalių rodyklių gretimoms žemėlapius.


METAR-TAF: